Time;durP1;ratioP1;P1;durP2;ratioP2;P2;SDS_P1;SDS_P2;PMS_P1;PMS_P2;Temp;Humidity;BMP_temperature;BMP_pressure;BME280_temperature;BME280_humidity;BME280_pressure;Samples;Min_cycle;Max_cycle;Signal;HPM_P1;HPM_P2
2021/07/24 00:01:37;;;;;;;0.20;0.20;;;;;;;16.69;65.74;99055.50;4962117;28;20110;-82
2021/07/24 00:04:05;;;;;;;0.10;0.10;;;;;;;16.68;65.81;99069.38;4956089;28;20065;-82
2021/07/24 00:06:32;;;;;;;0.13;0.13;;;;;;;16.67;65.75;99067.66;4965040;28;20103;-82
2021/07/24 00:09:04;;;;;;;0.10;0.10;;;;;;;16.64;65.81;99064.31;4980343;28;20041;-83
2021/07/24 00:11:31;;;;;;;0.10;0.10;;;;;;;16.67;65.59;99070.38;4964178;28;20031;-83
2021/07/24 00:13:58;;;;;;;0.10;0.10;;;;;;;16.69;65.84;99071.03;4983682;28;20031;-81
2021/07/24 00:16:24;;;;;;;0.10;0.10;;;;;;;16.63;65.50;99073.53;4963401;28;20039;-83
2021/07/24 00:18:50;;;;;;;0.10;0.10;;;;;;;16.57;65.72;99068.91;4979863;28;20031;-83
2021/07/24 00:21:17;;;;;;;0.10;0.10;;;;;;;16.67;65.71;99073.13;4952259;28;20058;-84
2021/07/24 00:23:44;;;;;;;0.10;0.10;;;;;;;16.59;66.25;99071.41;4953075;28;20034;-83
2021/07/24 00:26:14;;;;;;;0.10;0.10;;;;;;;16.57;66.05;99068.91;4956334;28;20082;-82
2021/07/24 00:28:41;;;;;;;0.10;0.10;;;;;;;16.58;66.10;99076.03;4979544;28;20122;-82
2021/07/24 00:31:08;;;;;;;0.10;0.10;;;;;;;16.49;66.15;99069.09;4961295;28;20043;-82
2021/07/24 00:33:40;;;;;;;0.20;0.20;;;;;;;16.50;66.17;99078.09;4955470;28;20103;-82
2021/07/24 00:36:06;;;;;;;0.10;0.10;;;;;;;16.53;66.02;99086.72;4953741;28;20023;-83
2021/07/24 00:38:33;;;;;;;0.10;0.10;;;;;;;16.50;66.87;99081.66;4969660;28;20101;-82
2021/07/24 00:41:04;;;;;;;0.10;0.10;;;;;;;16.48;66.44;99081.03;4958431;29;20043;-80
2021/07/24 00:43:35;;;;;;;0.10;0.10;;;;;;;16.48;66.19;99081.03;4964735;28;20489;-83
2021/07/24 00:46:02;;;;;;;0.10;0.10;;;;;;;16.35;66.61;99091.91;4978512;28;20114;-81
2021/07/24 00:48:31;;;;;;;0.10;0.10;;;;;;;16.31;66.53;99085.16;4918046;28;20128;-82
2021/07/24 00:51:29;;;;;;;0.10;0.10;;;;;;;16.17;67.05;99083.41;4950109;28;20048;-81
2021/07/24 00:53:59;;;;;;;0.10;0.10;;;;;;;16.11;67.30;99080.41;4942550;28;20444;-83
2021/07/24 00:56:25;;;;;;;0.10;0.10;;;;;;;16.05;67.67;99083.97;4965686;28;20118;-82
2021/07/24 00:58:52;;;;;;;0.10;0.10;;;;;;;16.04;67.45;99087.72;4941347;28;20046;-81
2021/07/24 01:01:18;;;;;;;0.10;0.10;;;;;;;16.01;67.87;99085.38;4949510;28;20069;-82
2021/07/24 01:03:45;;;;;;;0.10;0.10;;;;;;;15.95;67.77;99086.22;4943935;28;20043;-82
2021/07/24 01:06:13;;;;;;;0.10;0.10;;;;;;;15.91;67.93;99079.47;4961244;28;20607;-83
2021/07/24 01:08:39;;;;;;;0.10;0.10;;;;;;;15.84;68.59;99084.88;4956706;28;20102;-83
2021/07/24 01:11:06;;;;;;;0.10;0.10;;;;;;;15.81;69.03;99089.88;4964656;28;20035;-81
2021/07/24 01:13:35;;;;;;;0.10;0.10;;;;;;;15.72;69.09;99091.06;4953686;28;20385;-82
2021/07/24 01:16:02;;;;;;;0.10;0.10;;;;;;;15.60;69.57;99088.84;4953216;29;20046;-82
2021/07/24 01:18:32;;;;;;;0.10;0.10;;;;;;;15.52;69.77;99097.16;4952989;28;20146;-83
2021/07/24 01:21:05;;;;;;;0.10;0.10;;;;;;;15.44;69.80;99095.44;4974811;28;20101;-81
2021/07/24 01:23:37;;;;;;;0.10;0.10;;;;;;;15.36;70.72;99097.47;4973056;28;20572;-84
2021/07/24 01:26:05;;;;;;;0.10;0.10;;;;;;;15.33;70.92;99111.47;4934409;29;20461;-81
2021/07/24 01:28:35;;;;;;;0.10;0.10;;;;;;;15.26;71.19;99110.56;4945513;28;20070;-82
2021/07/24 01:31:05;;;;;;;0.10;0.10;;;;;;;15.22;71.52;99117.44;4965265;28;20046;-82
2021/07/24 01:33:34;;;;;;;0.20;0.20;;;;;;;15.16;71.58;99108.16;4964273;28;20185;-83
2021/07/24 01:36:02;;;;;;;0.10;0.10;;;;;;;15.12;71.42;99113.13;4969525;28;20043;-82
2021/07/24 01:38:30;;;;;;;0.10;0.10;;;;;;;15.09;71.80;99118.97;4948483;29;20050;-82
2021/07/24 01:41:11;;;;;;;0.10;0.10;;;;;;;15.11;71.90;99116.06;4967921;28;20524;-80
2021/07/24 01:43:39;;;;;;;0.10;0.10;;;;;;;15.10;71.88;99114.34;4921059;28;20043;-82
2021/07/24 01:46:07;;;;;;;0.20;0.20;;;;;;;15.05;72.13;99114.94;4967418;28;20091;-81
2021/07/24 01:49:10;;;;;;;0.17;0.17;;;;;;;15.09;72.00;99121.69;4950860;28;20054;-82
2021/07/24 01:54:37;;;;;;;0.10;0.10;;;;;;;15.03;72.15;99119.75;4937411;28;20047;-82
2021/07/24 01:57:08;;;;;;;0.10;0.10;;;;;;;15.01;72.29;99120.97;4971698;28;20118;-83
2021/07/24 01:59:42;;;;;;;0.10;0.10;;;;;;;14.91;73.08;99126.72;4956569;28;20085;-82
2021/07/24 02:02:09;;;;;;;0.20;0.20;;;;;;;14.78;73.99;99129.31;4966450;28;20054;-82
2021/07/24 02:04:38;;;;;;;0.10;0.10;;;;;;;14.69;74.25;99125.84;4982172;28;20046;-82
2021/07/24 02:07:09;;;;;;;0.10;0.10;;;;;;;14.68;74.28;99138.59;4938099;29;20039;-82
2021/07/24 02:09:57;;;;;;;0.20;0.20;;;;;;;14.76;74.21;99139.53;4956631;28;20039;-83
2021/07/24 02:12:36;;;;;;;0.10;0.10;;;;;;;14.78;74.34;99142.91;4946253;28;20087;-83
2021/07/24 02:15:03;;;;;;;0.20;0.20;;;;;;;14.91;73.58;99143.88;4956887;28;20059;-82
2021/07/24 02:17:33;;;;;;;0.20;0.20;;;;;;;14.99;73.16;99145.69;4925302;28;20043;-81
2021/07/24 02:20:04;;;;;;;0.20;0.20;;;;;;;15.15;72.64;99150.88;4960212;28;20527;-82
2021/07/24 02:22:31;;;;;;;0.20;0.20;;;;;;;15.24;72.00;99142.56;4939402;28;20046;-83
2021/07/24 02:25:01;;;;;;;0.20;0.20;;;;;;;15.35;71.66;99140.16;4966226;28;20488;-85
2021/07/24 02:27:33;;;;;;;0.20;0.20;;;;;;;15.37;71.56;99145.44;4958283;28;20067;-84
2021/07/24 02:30:03;;;;;;;0.10;0.10;;;;;;;15.44;71.29;99151.78;4955045;28;20039;-83
2021/07/24 02:32:31;;;;;;;0.20;0.20;;;;;;;15.47;71.38;99151.41;4953044;28;20082;-81
2021/07/24 02:34:59;;;;;;;0.20;0.17;;;;;;;15.53;71.04;99153.34;4924228;28;20035;-81
2021/07/24 02:37:26;;;;;;;0.20;0.20;;;;;;;15.54;71.16;99156.91;4967843;28;20085;-81
2021/07/24 02:39:52;;;;;;;0.10;0.10;;;;;;;15.63;70.87;99151.13;4956160;28;20115;-82
2021/07/24 02:42:23;;;;;;;0.20;0.20;;;;;;;15.65;70.80;99149.09;4967459;28;20043;-84
2021/07/24 02:44:54;;;;;;;0.10;0.10;;;;;;;15.72;70.05;99156.47;4953275;28;20093;-81
2021/07/24 02:47:21;;;;;;;0.20;0.20;;;;;;;15.78;69.88;99144.78;4956249;28;20054;-84
2021/07/24 02:49:52;;;;;;;0.20;0.20;;;;;;;15.77;70.19;99148.56;4947149;28;20034;-82
2021/07/24 02:52:19;;;;;;;0.20;0.20;;;;;;;15.88;69.70;99164.38;4970535;28;20038;-82
2021/07/24 02:54:47;;;;;;;0.20;0.20;;;;;;;15.91;70.06;99161.25;4933893;29;20050;-83
2021/07/24 02:57:14;;;;;;;0.13;0.13;;;;;;;15.94;69.86;99170.91;4946333;29;20050;-81
2021/07/24 02:59:41;;;;;;;0.20;0.20;;;;;;;15.99;70.14;99169.28;4955552;28;20501;-83
2021/07/24 03:02:09;;;;;;;0.10;0.10;;;;;;;16.06;70.10;99177.53;4955230;28;20050;-84
2021/07/24 03:04:35;;;;;;;0.20;0.20;;;;;;;15.93;70.25;99178.25;4970284;28;20091;-82
2021/07/24 03:07:02;;;;;;;0.10;0.10;;;;;;;15.92;70.30;99173.84;4978548;28;20264;-81
2021/07/24 03:09:29;;;;;;;0.20;0.20;;;;;;;15.96;70.14;99169.66;4959595;28;20040;-82
2021/07/24 03:11:55;;;;;;;0.20;0.20;;;;;;;16.01;69.79;99172.63;4965632;28;20075;-84
2021/07/24 03:14:22;;;;;;;0.17;0.17;;;;;;;16.06;69.18;99174.78;4920430;29;20063;-83
2021/07/24 03:16:57;;;;;;;0.20;0.20;;;;;;;16.21;68.79;99180.97;4997802;23;20053;-80
2021/07/24 03:19:25;;;;;;;0.20;0.20;;;;;;;16.22;68.72;99179.09;4940496;28;20054;-83
2021/07/24 03:21:50;;;;;;;0.20;0.20;;;;;;;16.42;68.28;99179.19;4962179;28;20078;-83
2021/07/24 03:24:17;;;;;;;0.13;0.13;;;;;;;16.48;67.96;99168.34;4962630;28;20050;-84
2021/07/24 03:26:45;;;;;;;0.20;0.20;;;;;;;16.53;66.79;99176.78;4964359;28;20038;-83
2021/07/24 03:29:12;;;;;;;0.10;0.10;;;;;;;16.55;66.30;99179.28;4987527;28;20437;-83
2021/07/24 03:31:39;;;;;;;0.20;0.20;;;;;;;16.71;66.18;99180.84;4973751;28;20039;-82
2021/07/24 03:34:06;;;;;;;0.20;0.20;;;;;;;16.83;66.09;99174.66;4963302;28;20062;-83
2021/07/24 03:36:32;;;;;;;0.20;0.20;;;;;;;16.93;65.88;99182.47;4994205;28;20042;-83
2021/07/24 03:38:59;;;;;;;0.10;0.10;;;;;;;16.99;65.33;99181.63;4948782;28;20077;-82
2021/07/24 03:41:25;;;;;;;0.20;0.20;;;;;;;17.04;65.18;99190.06;4949342;28;20058;-82
2021/07/24 03:43:52;;;;;;;0.20;0.20;;;;;;;17.09;65.14;99195.75;4964890;28;20043;-82
2021/07/24 03:46:21;;;;;;;0.10;0.10;;;;;;;17.13;64.86;99203.53;4976108;28;20129;-83
2021/07/24 03:48:47;;;;;;;0.10;0.10;;;;;;;17.15;64.21;99190.50;4986467;28;20042;-83
2021/07/24 03:51:15;;;;;;;0.20;0.20;;;;;;;17.22;63.69;99205.03;4938392;29;20103;-82
2021/07/24 03:53:42;;;;;;;0.10;0.10;;;;;;;17.21;64.08;99200.63;4974200;28;20055;-83
2021/07/24 03:56:16;;;;;;;0.20;0.20;;;;;;;17.18;64.23;99206.50;4958040;28;20029;-83
2021/07/24 03:58:43;;;;;;;0.20;0.20;;;;;;;17.29;63.77;99209.47;4950530;28;20125;-82
2021/07/24 04:01:10;;;;;;;0.20;0.20;;;;;;;17.46;62.33;99204.47;4962095;28;20043;-82
2021/07/24 04:03:38;;;;;;;0.20;0.20;;;;;;;17.55;61.65;99216.91;4961388;28;20073;-84
2021/07/24 04:06:17;;;;;;;0.20;0.20;;;;;;;17.62;61.97;99221.53;4972780;28;20504;-84
2021/07/24 04:08:53;;;;;;;0.10;0.10;;;;;;;17.66;61.92;99217.34;4955232;28;20039;-84
2021/07/24 04:11:31;;;;;;;0.20;0.20;;;;;;;17.77;61.29;99224.94;4953813;29;20121;-84
2021/07/24 04:14:05;;;;;;;0.20;0.20;;;;;;;17.93;60.31;99226.47;4960144;28;20050;-85
2021/07/24 04:16:35;;;;;;;0.20;0.20;;;;;;;18.03;59.92;99233.19;4995584;28;20042;-83
2021/07/24 04:19:05;;;;;;;0.20;0.20;;;;;;;18.18;59.16;99237.63;4974275;28;20063;-81
2021/07/24 04:21:35;;;;;;;0.20;0.20;;;;;;;18.24;59.14;99244.97;4978395;28;20050;-83
2021/07/24 04:24:04;;;;;;;0.10;0.10;;;;;;;18.28;59.55;99252.56;4976236;28;20039;-84
2021/07/24 04:26:41;;;;;;;0.20;0.20;;;;;;;18.26;59.75;99248.34;4977885;28;20050;-85
2021/07/24 04:29:10;;;;;;;0.20;0.20;;;;;;;18.41;59.37;99243.50;4971039;28;20070;-86
2021/07/24 04:32:04;;;;;;;0.20;0.20;;;;;;;18.58;59.00;99252.13;4985500;28;20050;-85
2021/07/24 04:34:37;;;;;;;0.30;0.30;;;;;;;18.85;57.91;99257.56;5002853;28;20058;-84
2021/07/24 04:37:04;;;;;;;0.30;0.30;;;;;;;18.94;57.22;99257.13;4967140;28;20023;-85
2021/07/24 04:39:32;;;;;;;0.20;0.20;;;;;;;19.33;56.29;99266.25;4968473;29;20568;-84
2021/07/24 04:41:59;;;;;;;0.20;0.20;;;;;;;19.35;55.64;99264.16;4937081;29;20094;-83
2021/07/24 04:45:03;;;;;;;0.20;0.20;;;;;;;19.36;55.30;99265.81;4977399;28;20043;-84
2021/07/24 04:47:38;;;;;;;0.20;0.20;;;;;;;19.51;54.64;99269.13;4978808;28;20077;-86
2021/07/24 04:50:06;;;;;;;0.20;0.20;;;;;;;19.59;54.88;99275.41;5026389;23;20065;-84
2021/07/24 04:52:34;;;;;;;0.20;0.20;;;;;;;19.49;55.21;99271.25;4990061;28;20043;-83
2021/07/24 04:55:04;;;;;;;0.20;0.20;;;;;;;19.60;54.51;99268.84;4958144;28;20035;-83
2021/07/24 04:57:35;;;;;;;0.20;0.20;;;;;;;19.65;54.57;99275.41;5030913;23;20034;-84
2021/07/24 05:00:02;;;;;;;0.20;0.20;;;;;;;19.54;54.35;99278.81;4944973;28;20046;-86
2021/07/24 05:02:30;;;;;;;0.20;0.20;;;;;;;19.32;54.71;99269.22;4971994;28;20058;-81
2021/07/24 05:04:57;;;;;;;0.20;0.20;;;;;;;19.12;53.90;99280.25;4997543;28;20055;-84
2021/07/24 05:07:29;;;;;;;0.20;0.20;;;;;;;19.16;53.67;99278.75;4989825;28;20140;-84
2021/07/24 05:09:55;;;;;;;0.20;0.20;;;;;;;19.20;52.98;99277.28;4988871;28;20390;-83
2021/07/24 05:12:24;;;;;;;0.20;0.20;;;;;;;19.33;53.79;99277.22;4975129;28;20081;-82
2021/07/24 05:14:55;;;;;;;0.20;0.20;;;;;;;19.45;53.11;99286.47;4966708;28;20085;-84
2021/07/24 05:17:28;;;;;;;0.20;0.20;;;;;;;19.64;51.83;99300.31;4990552;28;20047;-86
2021/07/24 05:19:56;;;;;;;0.20;0.20;;;;;;;19.84;52.46;99291.97;4956809;28;20049;-83
2021/07/24 05:22:24;;;;;;;0.30;0.30;;;;;;;20.30;50.69;99291.66;4961019;28;20539;-84
2021/07/24 05:24:54;;;;;;;0.50;0.50;;;;;;;21.14;49.34;99289.41;5177021;23;20041;-85
2021/07/24 05:34:40;;;;;;;0.30;0.30;;;;;;;21.26;48.62;99298.56;5411652;23;20054;-83
2021/07/24 05:37:14;;;;;;;0.30;0.30;;;;;;;21.35;47.00;99294.50;5330021;23;20185;-84
2021/07/24 05:39:45;;;;;;;0.50;0.50;;;;;;;21.65;45.23;99307.44;4959894;28;20074;-86
2021/07/24 05:42:16;;;;;;;0.30;0.30;;;;;;;21.77;44.01;99300.06;4953367;29;20083;-84
2021/07/24 05:44:49;;;;;;;0.50;0.50;;;;;;;21.99;42.78;99296.81;4943989;29;20047;-84
2021/07/24 05:47:27;;;;;;;0.50;0.50;;;;;;;22.52;42.12;99307.00;5453181;23;20141;31
2021/07/24 06:14:07;;;;;;;0.20;0.20;;;;;;;23.13;39.82;99308.47;6022737;23;20018;-85
2021/07/24 07:27:12;;;;;;;0.20;0.20;;;;;;;28.41;26.38;99343.28;5390849;23;20388;-81
2021/07/24 07:29:43;;;;;;;0.60;0.60;;;;;;;27.43;27.78;99346.78;4945715;28;20047;-84
2021/07/24 07:32:21;;;;;;;0.93;0.93;;;;;;;28.74;25.86;99346.63;4945623;28;20142;-81
2021/07/24 07:34:48;;;;;;;1.27;1.27;;;;;;;29.84;24.33;99345.91;4950590;28;20054;-82
2021/07/24 07:37:21;;;;;;;0.10;0.10;;;;;;;29.07;24.79;99350.81;4949891;28;20062;-84
2021/07/24 07:39:48;;;;;;;0.10;0.10;;;;;;;28.02;26.50;99354.81;4968234;28;20159;-82
2021/07/24 07:42:15;;;;;;;0.10;0.10;;;;;;;26.98;27.38;99353.66;4952055;28;20525;-82
2021/07/24 07:44:41;;;;;;;0.20;0.20;;;;;;;26.67;27.77;99353.41;4954247;28;20031;-80
2021/07/24 07:47:08;;;;;;;1.40;1.40;;;;;;;27.08;26.75;99353.72;4956047;28;20038;-80
2021/07/24 07:49:34;;;;;;;1.50;1.50;;;;;;;28.67;25.15;99351.63;4918947;28;20062;-83
2021/07/24 07:52:01;;;;;;;0.70;0.70;;;;;;;29.75;24.13;99364.31;4959467;28;20097;-80
2021/07/24 07:54:32;;;;;;;0.30;0.30;;;;;;;29.35;24.56;99368.84;4949318;28;20058;-81
2021/07/24 07:57:00;;;;;;;0.20;0.20;;;;;;;29.49;24.04;99369.09;4958188;28;20031;-79
2021/07/24 07:59:26;;;;;;;0.20;0.20;;;;;;;28.64;25.31;99368.88;4940578;28;20052;-80
2021/07/24 08:01:53;;;;;;;0.32;0.32;;;;;;;28.40;24.86;99363.00;4957880;28;20158;-82
2021/07/24 08:04:19;;;;;;;1.35;1.35;;;;;;;29.69;23.80;99363.50;4964312;28;20070;-83
2021/07/24 08:06:47;;;;;;;1.50;1.50;;;;;;;30.88;22.14;99368.13;4967025;28;20039;-80
2021/07/24 08:09:13;;;;;;;1.20;1.20;;;;;;;31.57;21.29;99368.06;4962423;28;20430;-80
2021/07/24 08:11:39;;;;;;;1.20;1.20;;;;;;;32.13;21.25;99367.38;4930909;28;20194;-79
2021/07/24 08:14:06;;;;;;;1.35;1.35;;;;;;;33.19;19.30;99375.28;4935352;28;20163;-80
2021/07/24 08:16:33;;;;;;;1.40;1.40;;;;;;;32.09;20.84;99369.13;4962436;28;20512;-80
2021/07/24 08:18:59;;;;;;;0.10;0.10;;;;;;;31.01;22.23;99368.56;4958397;28;20046;-80
2021/07/24 08:21:27;;;;;;;0.32;0.32;;;;;;;29.42;23.87;99379.72;4958513;28;20043;-82
2021/07/24 08:23:53;;;;;;;0.10;0.10;;;;;;;28.45;25.46;99374.13;4941301;28;20575;-81
2021/07/24 08:26:20;;;;;;;0.10;0.10;;;;;;;27.70;25.92;99381.91;4960665;28;20555;-81
2021/07/24 08:28:45;;;;;;;1.48;1.48;;;;;;;28.12;25.81;99381.84;4966783;28;20130;-80
2021/07/24 08:31:18;;;;;;;1.30;1.30;;;;;;;30.02;23.28;99389.00;4954427;28;20630;-79
2021/07/24 08:33:44;;;;;;;1.20;1.20;;;;;;;31.07;22.37;99387.78;4962394;28;20527;-80
2021/07/24 08:36:10;;;;;;;1.20;1.20;;;;;;;32.53;20.61;99390.34;4958295;28;20131;-81
2021/07/24 08:38:36;;;;;;;0.10;0.10;;;;;;;32.21;20.82;99386.28;4966664;28;20507;-82
2021/07/24 08:41:03;;;;;;;0.10;0.10;;;;;;;30.62;23.06;99394.56;4927179;28;20047;-80
2021/07/24 08:43:29;;;;;;;0.10;0.10;;;;;;;29.08;23.99;99400.66;4958873;28;20074;-82
2021/07/24 08:45:57;;;;;;;0.20;0.20;;;;;;;28.37;24.63;99400.50;4951529;28;20085;-80
2021/07/24 08:48:24;;;;;;;0.10;0.10;;;;;;;27.46;26.08;99387.03;4950962;28;20043;-79
2021/07/24 08:50:50;;;;;;;1.50;1.50;;;;;;;27.73;25.78;99403.59;4935522;28;20355;-81
2021/07/24 08:53:26;;;;;;;1.40;1.40;;;;;;;30.26;22.74;99400.34;4936277;28;20063;-82
2021/07/24 08:56:05;;;;;;;1.50;1.50;;;;;;;31.49;21.10;99394.69;4941595;28;20078;-80
2021/07/24 08:58:37;;;;;;;1.45;1.45;;;;;;;32.49;20.77;99390.13;4964369;28;20065;-80
2021/07/24 09:01:11;;;;;;;;;;;;;;;31.84;20.94;99399.03;4953623;28;20540;-78
2021/07/24 09:03:39;;;;;;;0.20;0.20;;;;;;;30.35;23.33;99404.22;4948957;28;19977;-80
2021/07/24 09:06:06;;;;;;;0.10;0.10;;;;;;;29.13;24.34;99405.38;4958705;28;20129;-82
2021/07/24 09:08:33;;;;;;;0.88;0.88;;;;;;;28.78;24.87;99403.41;4943218;28;20117;-81
2021/07/24 09:11:00;;;;;;;1.50;1.50;;;;;;;31.02;22.04;99400.97;4972035;28;20405;-78
2021/07/24 09:13:30;;;;;;;1.30;1.30;;;;;;;32.45;20.37;99405.03;4951220;28;20110;-82
2021/07/24 09:15:57;;;;;;;0.20;0.20;;;;;;;32.10;20.38;99393.16;4958831;28;20044;-81
2021/07/24 09:18:24;;;;;;;1.30;1.30;;;;;;;32.97;20.40;99394.72;4960496;28;20456;-81
2021/07/24 09:20:50;;;;;;;1.20;1.20;;;;;;;33.69;19.59;99405.50;4964490;28;21234;-83
2021/07/24 09:23:35;;;;;;;1.10;1.10;;;;;;;34.14;19.14;99395.31;4942497;28;20070;-81
2021/07/24 09:26:06;;;;;;;1.00;1.00;;;;;;;33.21;19.76;99405.81;4968562;28;20496;-82
2021/07/24 09:28:34;;;;;;;1.10;1.10;;;;;;;34.27;18.60;99405.69;4974232;28;20038;-80
2021/07/24 09:31:20;;;;;;;0.10;0.10;;;;;;;33.37;19.47;99399.59;4957867;28;20051;-82
2021/07/24 09:33:54;;;;;;;0.10;0.10;;;;;;;31.92;20.25;99412.41;4961427;28;20474;-82
2021/07/24 09:36:34;;;;;;;1.50;1.50;;;;;;;31.76;20.43;99416.47;4962056;28;20486;-81
2021/07/24 09:39:11;;;;;;;0.70;0.70;;;;;;;32.80;20.24;99412.03;4954161;28;20047;-80
2021/07/24 09:41:38;;;;;;;0.30;0.30;;;;;;;31.43;21.52;99401.44;4961595;28;20130;-80
2021/07/24 09:44:04;;;;;;;0.10;0.10;;;;;;;30.51;22.56;99413.31;4942025;28;20046;-80
2021/07/24 09:46:31;;;;;;;0.10;0.10;;;;;;;29.20;23.99;99421.78;4962671;28;20054;-84
2021/07/24 09:49:10;;;;;;;0.10;0.10;;;;;;;28.28;24.94;99410.50;4965869;28;20523;-80
2021/07/24 09:51:53;;;;;;;1.10;1.10;;;;;;;28.70;24.25;99417.84;4962100;28;20110;-81
2021/07/24 09:54:37;;;;;;;1.20;1.20;;;;;;;31.16;21.63;99410.34;4966036;28;20060;-85
2021/07/24 09:57:08;;;;;;;1.20;1.20;;;;;;;32.31;20.21;99416.91;4958590;28;20061;-83
2021/07/24 09:59:38;;;;;;;1.02;1.02;;;;;;;33.20;19.32;99409.72;4954928;28;20078;-79
2021/07/24 10:02:06;;;;;;;1.00;1.00;;;;;;;34.12;18.37;99408.84;4947213;28;21536;-82
2021/07/24 10:04:38;;;;;;;1.05;1.05;;;;;;;34.59;16.88;99406.69;4952141;28;20521;-83
2021/07/24 10:07:10;;;;;;;0.37;0.37;;;;;;;33.59;17.68;99409.31;4952345;28;20055;-82
2021/07/24 10:09:47;;;;;;;0.20;0.20;;;;;;;32.76;18.84;99417.41;4954799;28;20073;-82
2021/07/24 10:12:15;;;;;;;0.10;0.10;;;;;;;31.58;20.13;99400.47;4949400;28;20046;-81
2021/07/24 10:14:43;;;;;;;0.10;0.10;;;;;;;30.17;21.64;99413.25;4972005;28;20049;-82
2021/07/24 10:17:13;;;;;;;0.10;0.10;;;;;;;29.32;22.34;99419.53;4973093;28;20063;-82
2021/07/24 10:19:40;;;;;;;0.10;0.10;;;;;;;29.18;22.95;99419.31;4943534;28;20061;-78
2021/07/24 10:22:11;;;;;;;0.25;0.10;;;;;;;28.80;23.24;99412.28;4977788;28;20039;-82
2021/07/24 10:24:41;;;;;;;0.10;0.10;;;;;;;28.36;23.96;99412.75;4976084;28;20055;-79
2021/07/24 10:27:24;;;;;;;0.10;0.10;;;;;;;27.91;24.41;99421.75;4933465;28;20107;-81
2021/07/24 10:30:03;;;;;;;0.10;0.10;;;;;;;27.49;25.25;99415.09;4973330;28;20051;-79
2021/07/24 10:32:35;;;;;;;0.10;0.10;;;;;;;27.40;25.56;99422.28;4955199;28;20072;-79
2021/07/24 10:35:04;;;;;;;0.10;0.10;;;;;;;26.86;26.06;99416.81;4940874;28;20528;-81
2021/07/24 10:37:46;;;;;;;0.20;0.20;;;;;;;26.08;26.79;99417.09;4956167;28;20045;-83
2021/07/24 10:40:23;;;;;;;0.10;0.10;;;;;;;26.34;26.96;99421.00;4963676;28;20046;-82
2021/07/24 10:42:53;;;;;;;0.10;0.10;;;;;;;26.45;26.54;99421.94;4967708;28;20067;-83
2021/07/24 10:45:32;;;;;;;0.20;0.20;;;;;;;26.71;26.75;99430.56;4975510;28;20039;-82
2021/07/24 10:48:53;;;;;;;0.20;0.20;;;;;;;26.73;27.20;99429.19;4984564;28;20045;-82
2021/07/24 10:51:19;;;;;;;0.20;0.20;;;;;;;27.10;26.91;99434.78;4873081;29;20048;-82
2021/07/24 10:56:42;;;;;;;0.30;0.30;;;;;;;27.02;27.91;99449.16;4972685;28;20572;-80
2021/07/24 10:59:13;;;;;;;0.17;0.17;;;;;;;26.80;28.54;99452.00;4976181;28;20043;-81
2021/07/24 11:01:47;;;;;;;0.20;0.20;;;;;;;26.26;29.45;99451.13;4947938;28;20145;-81
2021/07/24 11:04:35;;;;;;;0.20;0.20;;;;;;;26.48;29.54;99453.88;4991332;28;20066;-83
2021/07/24 11:07:13;;;;;;;0.20;0.20;;;;;;;26.03;29.79;99455.78;4945380;28;20495;-81
2021/07/24 11:09:46;;;;;;;0.10;0.10;;;;;;;26.55;27.95;99460.06;4966671;28;20049;-82
2021/07/24 11:12:16;;;;;;;0.20;0.20;;;;;;;26.35;27.52;99455.09;4959041;28;20141;-82
2021/07/24 11:15:14;;;;;;;0.20;0.20;;;;;;;26.78;26.54;99453.38;4948284;28;20057;-83
2021/07/24 11:17:40;;;;;;;1.15;1.15;;;;;;;29.03;23.67;99466.59;4963486;28;20089;-80
2021/07/24 11:20:08;;;;;;;0.30;0.30;;;;;;;28.79;23.99;99466.28;4975249;28;20078;-82
2021/07/24 11:22:56;;;;;;;0.60;0.60;;;;;;;28.04;24.38;99469.31;4945330;28;20106;-82
2021/07/24 11:25:31;;;;;;;1.30;1.30;;;;;;;29.72;22.93;99474.38;4959901;28;20074;-82
2021/07/24 11:28:01;;;;;;;0.10;0.10;;;;;;;28.57;23.84;99478.47;4961913;28;20031;-82
2021/07/24 11:30:27;;;;;;;0.10;0.10;;;;;;;27.85;24.82;99474.50;4933485;28;20054;-81
2021/07/24 11:32:57;;;;;;;0.10;0.10;;;;;;;27.00;25.65;99472.72;4972304;28;20064;-83
2021/07/24 11:35:33;;;;;;;0.15;0.10;;;;;;;26.76;26.70;99475.81;4964878;28;20050;-81
2021/07/24 11:38:01;;;;;;;0.10;0.10;;;;;;;26.27;26.43;99466.63;4960470;28;20046;-80
2021/07/24 11:40:32;;;;;;;0.10;0.10;;;;;;;25.72;27.36;99474.75;4965742;28;20556;-83
2021/07/24 11:43:11;;;;;;;1.20;1.20;;;;;;;26.34;26.82;99481.13;4957961;28;20047;-83
2021/07/24 11:45:38;;;;;;;1.20;1.20;;;;;;;28.10;24.99;99487.72;4958445;28;20066;-83
2021/07/24 11:48:17;;;;;;;0.20;0.20;;;;;;;28.85;23.73;99481.88;4978199;28;20042;-82
2021/07/24 11:50:51;;;;;;;0.30;0.30;;;;;;;28.10;24.90;99479.38;4962996;28;20042;-81
2021/07/24 11:53:20;;;;;;;1.00;1.00;;;;;;;29.29;23.78;99481.41;4984140;28;20054;-80
2021/07/24 11:55:48;;;;;;;1.00;1.00;;;;;;;30.30;22.37;99479.53;4964541;28;20042;-80
2021/07/24 11:58:17;;;;;;;0.90;0.90;;;;;;;31.04;21.57;99488.06;4975968;28;20043;-82
2021/07/24 12:00:53;;;;;;;0.90;0.90;;;;;;;31.59;20.35;99483.16;4959086;28;20078;-82
2021/07/24 12:03:24;;;;;;;0.90;0.90;;;;;;;31.87;20.24;99479.56;4942415;28;20046;-81
2021/07/24 12:05:58;;;;;;;0.77;0.77;;;;;;;31.82;19.68;99478.75;4968950;28;20521;-81
2021/07/24 12:08:29;;;;;;;0.80;0.80;;;;;;;31.54;19.47;99474.84;4994615;28;20053;-80
2021/07/24 12:10:58;;;;;;;0.30;0.30;;;;;;;30.82;19.85;99472.59;4973401;28;20094;-82
2021/07/24 12:13:29;;;;;;;0.28;0.28;;;;;;;30.33;20.59;99478.97;4939231;28;20095;-79
2021/07/24 12:16:10;;;;;;;0.60;0.60;;;;;;;31.49;19.80;99480.50;4957001;28;20050;-82
2021/07/24 12:18:44;;;;;;;0.60;0.60;;;;;;;31.35;19.89;99483.13;4993167;28;20046;-81
2021/07/24 12:21:21;;;;;;;0.50;0.50;;;;;;;31.63;19.60;99484.25;4985518;28;20038;-82
2021/07/24 12:23:58;;;;;;;0.50;0.50;;;;;;;31.35;19.50;99483.97;4939685;28;20326;-82
2021/07/24 12:26:31;;;;;;;0.50;0.50;;;;;;;31.21;20.35;99488.50;4942656;28;20099;-81
2021/07/24 12:29:20;;;;;;;0.10;0.10;;;;;;;30.47;20.69;99490.34;4982646;28;20039;-80
2021/07/24 12:31:50;;;;;;;0.30;0.30;;;;;;;30.38;21.07;99494.84;4939998;28;20046;-81
2021/07/24 12:34:18;;;;;;;0.30;0.30;;;;;;;29.97;21.69;99487.44;4961839;28;20376;-80
2021/07/24 12:37:01;;;;;;;0.20;0.20;;;;;;;29.23;22.45;99488.06;4983180;28;20539;-82
2021/07/24 12:39:32;;;;;;;0.10;0.10;;;;;;;29.13;22.27;99479.72;4959553;28;20034;-81
2021/07/24 12:42:02;;;;;;;0.00;0.00;;;;;;;27.75;24.11;99481.94;4950939;28;20051;-81
2021/07/24 12:44:29;;;;;;;0.10;0.10;;;;;;;26.97;26.06;99479.63;4944336;28;20039;-81
2021/07/24 12:47:15;;;;;;;0.10;0.10;;;;;;;26.81;25.31;99492.50;4964912;28;20046;-80
2021/07/24 12:49:44;;;;;;;0.10;0.10;;;;;;;26.91;25.72;99488.97;4960007;28;20066;-79
2021/07/24 12:52:30;;;;;;;0.10;0.10;;;;;;;26.42;26.61;99483.44;4947982;28;20043;-81
2021/07/24 12:55:00;;;;;;;0.10;0.10;;;;;;;26.30;27.00;99502.16;4964843;28;20038;-79
2021/07/24 12:57:28;;;;;;;0.10;0.10;;;;;;;26.72;26.27;99493.22;4959113;28;20105;-80
2021/07/24 12:59:55;;;;;;;0.10;0.10;;;;;;;26.43;25.88;99496.19;4958383;28;20404;-78
2021/07/24 13:02:22;;;;;;;0.10;0.10;;;;;;;25.90;26.46;99497.75;4958252;28;20054;-81
2021/07/24 13:04:52;;;;;;;0.10;0.10;;;;;;;25.64;26.98;99502.03;4984708;28;20038;-81
2021/07/24 13:07:23;;;;;;;0.10;0.10;;;;;;;25.50;27.35;99507.09;4963907;28;20046;-82
2021/07/24 13:09:50;;;;;;;0.10;0.10;;;;;;;25.13;27.69;99502.03;4949287;28;20098;-80
2021/07/24 13:12:19;;;;;;;0.10;0.10;;;;;;;25.41;28.19;99501.13;4951417;28;20059;-81
2021/07/24 13:14:46;;;;;;;0.10;0.10;;;;;;;25.59;27.65;99502.78;4952401;28;20043;-80
2021/07/24 13:17:12;;;;;;;0.10;0.10;;;;;;;25.52;27.79;99501.28;4945037;28;20042;-81
2021/07/24 13:19:40;;;;;;;0.10;0.10;;;;;;;25.59;27.82;99502.78;4981905;28;20100;-82
2021/07/24 13:22:17;;;;;;;0.10;0.10;;;;;;;25.31;27.82;99494.59;4968709;28;20092;-81
2021/07/24 13:24:43;;;;;;;0.10;0.10;;;;;;;25.36;27.74;99494.66;4948013;28;20042;-80
2021/07/24 13:29:54;;;;;;;0.10;0.10;;;;;;;25.19;28.10;99500.19;4977695;28;20034;-81
2021/07/24 13:32:23;;;;;;;0.10;0.10;;;;;;;24.95;28.87;99492.00;4966126;28;20507;-80
2021/07/24 13:34:49;;;;;;;0.10;0.10;;;;;;;24.86;27.94;99487.97;4969420;28;20218;-81
2021/07/24 13:37:39;;;;;;;0.15;0.10;;;;;;;24.28;29.31;99492.63;4958934;28;20101;-83
2021/07/24 13:40:10;;;;;;;0.10;0.10;;;;;;;24.25;29.51;99495.88;4949113;28;20049;-80
2021/07/24 13:42:38;;;;;;;0.10;0.10;;;;;;;24.30;28.97;99495.97;4965341;28;20142;-80